sensor_id;sensor_type;location;lat;lon;timestamp;P1;durP1;ratioP1;P2;durP2;ratioP2
40955;SDS011;26687;48.254;11.454;2022-11-20T00:01:24;2.03;;;1.77;;
40955;SDS011;26687;48.254;11.454;2022-11-20T00:04:24;2.17;;;1.80;;
40955;SDS011;26687;48.254;11.454;2022-11-20T00:07:24;2.00;;;1.80;;
40955;SDS011;26687;48.254;11.454;2022-11-20T00:10:25;2.25;;;1.63;;
40955;SDS011;26687;48.254;11.454;2022-11-20T00:13:25;2.15;;;1.90;;
40955;SDS011;26687;48.254;11.454;2022-11-20T00:16:26;2.17;;;1.70;;
40955;SDS011;26687;48.254;11.454;2022-11-20T00:19:26;1.75;;;1.50;;
40955;SDS011;26687;48.254;11.454;2022-11-20T00:22:27;1.57;;;1.47;;
40955;SDS011;26687;48.254;11.454;2022-11-20T00:25:27;2.57;;;1.80;;
40955;SDS011;26687;48.254;11.454;2022-11-20T00:28:27;3.28;;;1.90;;
40955;SDS011;26687;48.254;11.454;2022-11-20T00:31:28;2.50;;;1.67;;
40955;SDS011;26687;48.254;11.454;2022-11-20T00:34:28;1.50;;;1.40;;
40955;SDS011;26687;48.254;11.454;2022-11-20T00:37:28;1.83;;;1.50;;
40955;SDS011;26687;48.254;11.454;2022-11-20T00:40:29;1.60;;;1.50;;
40955;SDS011;26687;48.254;11.454;2022-11-20T00:43:29;1.73;;;1.63;;
40955;SDS011;26687;48.254;11.454;2022-11-20T00:46:29;2.03;;;1.30;;
40955;SDS011;26687;48.254;11.454;2022-11-20T00:49:29;2.43;;;1.93;;
40955;SDS011;26687;48.254;11.454;2022-11-20T00:52:29;1.55;;;1.40;;
40955;SDS011;26687;48.254;11.454;2022-11-20T00:55:30;1.90;;;1.63;;
40955;SDS011;26687;48.254;11.454;2022-11-20T00:58:34;1.88;;;1.60;;
40955;SDS011;26687;48.254;11.454;2022-11-20T01:01:34;3.92;;;1.60;;
40955;SDS011;26687;48.254;11.454;2022-11-20T01:04:35;1.65;;;1.55;;
40955;SDS011;26687;48.254;11.454;2022-11-20T01:07:35;2.33;;;1.73;;
40955;SDS011;26687;48.254;11.454;2022-11-20T01:10:36;2.05;;;1.73;;
40955;SDS011;26687;48.254;11.454;2022-11-20T01:13:36;1.80;;;1.65;;
40955;SDS011;26687;48.254;11.454;2022-11-20T01:16:37;2.22;;;1.70;;
40955;SDS011;26687;48.254;11.454;2022-11-20T01:19:38;3.25;;;1.85;;
40955;SDS011;26687;48.254;11.454;2022-11-20T01:22:38;2.10;;;1.80;;
40955;SDS011;26687;48.254;11.454;2022-11-20T01:25:39;1.77;;;1.67;;
40955;SDS011;26687;48.254;11.454;2022-11-20T01:28:39;2.17;;;1.80;;
40955;SDS011;26687;48.254;11.454;2022-11-20T01:31:40;2.58;;;2.05;;
40955;SDS011;26687;48.254;11.454;2022-11-20T01:34:40;2.60;;;1.90;;
40955;SDS011;26687;48.254;11.454;2022-11-20T01:37:40;2.10;;;2.00;;
40955;SDS011;26687;48.254;11.454;2022-11-20T01:40:40;2.13;;;1.92;;
40955;SDS011;26687;48.254;11.454;2022-11-20T01:43:40;1.90;;;1.70;;
40955;SDS011;26687;48.254;11.454;2022-11-20T01:46:42;2.60;;;1.90;;
40955;SDS011;26687;48.254;11.454;2022-11-20T01:49:50;1.95;;;1.80;;
40955;SDS011;26687;48.254;11.454;2022-11-20T01:52:56;2.15;;;1.95;;
40955;SDS011;26687;48.254;11.454;2022-11-20T01:55:58;2.55;;;2.00;;
40955;SDS011;26687;48.254;11.454;2022-11-20T01:58:59;2.10;;;1.65;;
40955;SDS011;26687;48.254;11.454;2022-11-20T02:02:01;2.15;;;1.73;;
40955;SDS011;26687;48.254;11.454;2022-11-20T02:05:03;2.10;;;1.90;;
40955;SDS011;26687;48.254;11.454;2022-11-20T02:08:07;2.30;;;1.92;;
40955;SDS011;26687;48.254;11.454;2022-11-20T02:11:08;2.10;;;1.90;;
40955;SDS011;26687;48.254;11.454;2022-11-20T02:14:08;2.33;;;1.98;;
40955;SDS011;26687;48.254;11.454;2022-11-20T02:17:09;2.38;;;1.83;;
40955;SDS011;26687;48.254;11.454;2022-11-20T02:20:09;2.33;;;2.03;;
40955;SDS011;26687;48.254;11.454;2022-11-20T02:23:12;3.28;;;2.20;;
40955;SDS011;26687;48.254;11.454;2022-11-20T02:26:12;1.80;;;1.70;;
40955;SDS011;26687;48.254;11.454;2022-11-20T02:29:15;2.55;;;2.25;;
40955;SDS011;26687;48.254;11.454;2022-11-20T02:32:27;2.20;;;2.00;;
40955;SDS011;26687;48.254;11.454;2022-11-20T02:38:27;2.17;;;1.90;;
40955;SDS011;26687;48.254;11.454;2022-11-20T02:41:34;2.28;;;2.08;;
40955;SDS011;26687;48.254;11.454;2022-11-20T02:44:35;3.28;;;2.35;;
40955;SDS011;26687;48.254;11.454;2022-11-20T02:47:35;2.47;;;2.28;;
40955;SDS011;26687;48.254;11.454;2022-11-20T02:50:38;2.50;;;2.20;;
40955;SDS011;26687;48.254;11.454;2022-11-20T02:53:39;2.28;;;2.08;;
40955;SDS011;26687;48.254;11.454;2022-11-20T02:56:39;2.63;;;2.20;;
40955;SDS011;26687;48.254;11.454;2022-11-20T02:59:40;2.83;;;2.38;;
40955;SDS011;26687;48.254;11.454;2022-11-20T03:02:40;3.05;;;2.20;;
40955;SDS011;26687;48.254;11.454;2022-11-20T03:05:40;2.45;;;2.25;;
40955;SDS011;26687;48.254;11.454;2022-11-20T03:08:40;2.45;;;2.13;;
40955;SDS011;26687;48.254;11.454;2022-11-20T03:11:40;2.60;;;2.40;;
40955;SDS011;26687;48.254;11.454;2022-11-20T03:14:41;2.30;;;2.10;;
40955;SDS011;26687;48.254;11.454;2022-11-20T03:17:41;3.03;;;2.27;;
40955;SDS011;26687;48.254;11.454;2022-11-20T03:20:41;2.87;;;2.17;;
40955;SDS011;26687;48.254;11.454;2022-11-20T03:23:41;2.22;;;2.03;;
40955;SDS011;26687;48.254;11.454;2022-11-20T03:26:42;2.45;;;2.25;;
40955;SDS011;26687;48.254;11.454;2022-11-20T03:29:42;2.30;;;2.10;;
40955;SDS011;26687;48.254;11.454;2022-11-20T03:32:42;2.00;;;1.90;;
40955;SDS011;26687;48.254;11.454;2022-11-20T03:35:42;2.70;;;2.08;;
40955;SDS011;26687;48.254;11.454;2022-11-20T03:38:43;2.22;;;2.03;;
40955;SDS011;26687;48.254;11.454;2022-11-20T03:41:43;3.55;;;2.08;;
40955;SDS011;26687;48.254;11.454;2022-11-20T03:44:43;2.30;;;1.83;;
40955;SDS011;26687;48.254;11.454;2022-11-20T03:47:44;3.03;;;2.20;;
40955;SDS011;26687;48.254;11.454;2022-11-20T03:50:44;2.38;;;2.17;;
40955;SDS011;26687;48.254;11.454;2022-11-20T03:53:48;2.03;;;1.83;;
40955;SDS011;26687;48.254;11.454;2022-11-20T03:56:48;2.53;;;2.30;;
40955;SDS011;26687;48.254;11.454;2022-11-20T03:59:48;1.95;;;1.77;;
40955;SDS011;26687;48.254;11.454;2022-11-20T04:02:48;2.40;;;2.20;;
40955;SDS011;26687;48.254;11.454;2022-11-20T04:05:48;2.20;;;2.00;;
40955;SDS011;26687;48.254;11.454;2022-11-20T04:08:49;2.25;;;2.05;;
40955;SDS011;26687;48.254;11.454;2022-11-20T04:11:49;1.95;;;1.85;;
40955;SDS011;26687;48.254;11.454;2022-11-20T04:14:49;2.15;;;2.00;;
40955;SDS011;26687;48.254;11.454;2022-11-20T04:17:50;3.25;;;1.90;;
40955;SDS011;26687;48.254;11.454;2022-11-20T04:20:50;2.03;;;1.83;;
40955;SDS011;26687;48.254;11.454;2022-11-20T04:23:51;2.88;;;2.13;;
40955;SDS011;26687;48.254;11.454;2022-11-20T04:26:52;2.50;;;2.13;;
40955;SDS011;26687;48.254;11.454;2022-11-20T04:29:52;2.78;;;2.35;;
40955;SDS011;26687;48.254;11.454;2022-11-20T04:32:52;2.30;;;2.10;;
40955;SDS011;26687;48.254;11.454;2022-11-20T04:35:53;3.53;;;2.30;;
40955;SDS011;26687;48.254;11.454;2022-11-20T04:38:53;2.63;;;2.42;;
40955;SDS011;26687;48.254;11.454;2022-11-20T04:41:54;2.67;;;2.45;;
40955;SDS011;26687;48.254;11.454;2022-11-20T04:45:13;2.28;;;2.08;;
40955;SDS011;26687;48.254;11.454;2022-11-20T04:48:13;2.83;;;1.70;;
40955;SDS011;26687;48.254;11.454;2022-11-20T04:51:14;2.35;;;2.15;;
40955;SDS011;26687;48.254;11.454;2022-11-20T04:54:14;2.53;;;2.33;;
40955;SDS011;26687;48.254;11.454;2022-11-20T04:57:14;2.20;;;2.00;;
40955;SDS011;26687;48.254;11.454;2022-11-20T05:00:15;2.13;;;1.95;;
40955;SDS011;26687;48.254;11.454;2022-11-20T05:03:15;2.33;;;2.13;;
40955;SDS011;26687;48.254;11.454;2022-11-20T05:06:16;3.03;;;1.80;;
40955;SDS011;26687;48.254;11.454;2022-11-20T05:09:17;2.08;;;1.90;;
40955;SDS011;26687;48.254;11.454;2022-11-20T05:12:17;2.30;;;2.10;;
40955;SDS011;26687;48.254;11.454;2022-11-20T05:15:18;2.25;;;1.95;;
40955;SDS011;26687;48.254;11.454;2022-11-20T05:18:18;2.63;;;1.90;;
40955;SDS011;26687;48.254;11.454;2022-11-20T05:21:18;2.05;;;1.85;;
40955;SDS011;26687;48.254;11.454;2022-11-20T05:24:18;2.10;;;1.93;;
40955;SDS011;26687;48.254;11.454;2022-11-20T05:27:19;2.13;;;1.98;;
40955;SDS011;26687;48.254;11.454;2022-11-20T05:30:19;1.90;;;1.80;;
40955;SDS011;26687;48.254;11.454;2022-11-20T05:33:19;2.03;;;1.90;;
40955;SDS011;26687;48.254;11.454;2022-11-20T05:36:19;2.08;;;1.88;;
40955;SDS011;26687;48.254;11.454;2022-11-20T05:39:20;2.30;;;2.10;;
40955;SDS011;26687;48.254;11.454;2022-11-20T05:42:20;1.95;;;1.85;;
40955;SDS011;26687;48.254;11.454;2022-11-20T05:45:32;1.95;;;1.85;;
40955;SDS011;26687;48.254;11.454;2022-11-20T05:48:33;2.97;;;1.77;;
40955;SDS011;26687;48.254;11.454;2022-11-20T05:51:34;1.70;;;1.60;;
40955;SDS011;26687;48.254;11.454;2022-11-20T05:54:34;2.00;;;1.90;;
40955;SDS011;26687;48.254;11.454;2022-11-20T05:57:34;2.30;;;1.80;;
40955;SDS011;26687;48.254;11.454;2022-11-20T06:00:34;1.92;;;1.73;;
40955;SDS011;26687;48.254;11.454;2022-11-20T06:03:35;1.60;;;1.50;;
40955;SDS011;26687;48.254;11.454;2022-11-20T06:06:35;2.00;;;1.80;;
40955;SDS011;26687;48.254;11.454;2022-11-20T06:09:35;2.35;;;2.00;;
40955;SDS011;26687;48.254;11.454;2022-11-20T06:12:35;2.60;;;1.73;;
40955;SDS011;26687;48.254;11.454;2022-11-20T06:15:36;2.22;;;1.77;;
40955;SDS011;26687;48.254;11.454;2022-11-20T06:18:36;1.63;;;1.52;;
40955;SDS011;26687;48.254;11.454;2022-11-20T06:21:36;1.60;;;1.50;;
40955;SDS011;26687;48.254;11.454;2022-11-20T06:24:36;1.60;;;1.50;;
40955;SDS011;26687;48.254;11.454;2022-11-20T06:27:37;1.67;;;1.57;;
40955;SDS011;26687;48.254;11.454;2022-11-20T06:30:37;1.63;;;1.48;;
40955;SDS011;26687;48.254;11.454;2022-11-20T06:33:37;2.07;;;1.70;;
40955;SDS011;26687;48.254;11.454;2022-11-20T06:36:37;1.58;;;1.48;;
40955;SDS011;26687;48.254;11.454;2022-11-20T06:39:37;1.60;;;1.50;;
40955;SDS011;26687;48.254;11.454;2022-11-20T06:42:37;2.20;;;1.65;;
40955;SDS011;26687;48.254;11.454;2022-11-20T06:45:38;1.77;;;1.63;;
40955;SDS011;26687;48.254;11.454;2022-11-20T06:48:38;2.15;;;1.90;;
40955;SDS011;26687;48.254;11.454;2022-11-20T06:51:38;2.13;;;1.80;;
40955;SDS011;26687;48.254;11.454;2022-11-20T06:54:38;3.05;;;2.05;;
40955;SDS011;26687;48.254;11.454;2022-11-20T06:57:38;1.60;;;1.48;;
40955;SDS011;26687;48.254;11.454;2022-11-20T07:00:39;1.77;;;1.67;;
40955;SDS011;26687;48.254;11.454;2022-11-20T07:03:39;1.50;;;1.40;;
40955;SDS011;26687;48.254;11.454;2022-11-20T07:06:39;2.45;;;1.80;;
40955;SDS011;26687;48.254;11.454;2022-11-20T07:09:40;2.50;;;1.50;;
40955;SDS011;26687;48.254;11.454;2022-11-20T07:12:40;1.70;;;1.60;;
40955;SDS011;26687;48.254;11.454;2022-11-20T07:15:40;1.95;;;1.50;;
40955;SDS011;26687;48.254;11.454;2022-11-20T07:18:40;1.60;;;1.38;;
40955;SDS011;26687;48.254;11.454;2022-11-20T07:21:41;1.93;;;1.67;;
40955;SDS011;26687;48.254;11.454;2022-11-20T07:24:41;2.00;;;1.73;;
40955;SDS011;26687;48.254;11.454;2022-11-20T07:27:41;1.93;;;1.83;;
40955;SDS011;26687;48.254;11.454;2022-11-20T07:30:42;2.20;;;1.65;;
40955;SDS011;26687;48.254;11.454;2022-11-20T07:33:42;1.85;;;1.50;;
40955;SDS011;26687;48.254;11.454;2022-11-20T07:36:42;1.73;;;1.63;;
40955;SDS011;26687;48.254;11.454;2022-11-20T07:39:42;2.30;;;1.50;;
40955;SDS011;26687;48.254;11.454;2022-11-20T07:42:52;1.87;;;1.67;;
40955;SDS011;26687;48.254;11.454;2022-11-20T07:45:56;2.05;;;1.73;;
40955;SDS011;26687;48.254;11.454;2022-11-20T07:48:56;1.75;;;1.60;;
40955;SDS011;26687;48.254;11.454;2022-11-20T07:51:56;1.90;;;1.77;;
40955;SDS011;26687;48.254;11.454;2022-11-20T07:54:56;1.87;;;1.77;;
40955;SDS011;26687;48.254;11.454;2022-11-20T07:57:57;2.63;;;2.20;;
40955;SDS011;26687;48.254;11.454;2022-11-20T08:00:57;2.33;;;2.10;;
40955;SDS011;26687;48.254;11.454;2022-11-20T08:03:57;2.55;;;2.35;;
40955;SDS011;26687;48.254;11.454;2022-11-20T08:06:57;2.65;;;1.90;;
40955;SDS011;26687;48.254;11.454;2022-11-20T08:09:57;1.95;;;1.75;;
40955;SDS011;26687;48.254;11.454;2022-11-20T08:12:58;1.97;;;1.77;;
40955;SDS011;26687;48.254;11.454;2022-11-20T08:16:16;2.30;;;1.92;;
40955;SDS011;26687;48.254;11.454;2022-11-20T08:19:17;2.17;;;1.92;;
40955;SDS011;26687;48.254;11.454;2022-11-20T08:22:18;2.20;;;2.00;;
40955;SDS011;26687;48.254;11.454;2022-11-20T08:25:18;2.47;;;1.70;;
40955;SDS011;26687;48.254;11.454;2022-11-20T08:28:18;2.20;;;2.00;;
40955;SDS011;26687;48.254;11.454;2022-11-20T08:31:18;2.23;;;1.90;;
40955;SDS011;26687;48.254;11.454;2022-11-20T08:34:18;2.42;;;1.92;;
40955;SDS011;26687;48.254;11.454;2022-11-20T08:37:18;2.03;;;1.80;;
40955;SDS011;26687;48.254;11.454;2022-11-20T08:40:19;2.20;;;1.87;;
40955;SDS011;26687;48.254;11.454;2022-11-20T08:43:19;2.07;;;1.80;;
40955;SDS011;26687;48.254;11.454;2022-11-20T08:46:19;1.73;;;1.60;;
40955;SDS011;26687;48.254;11.454;2022-11-20T08:49:19;2.07;;;1.60;;
40955;SDS011;26687;48.254;11.454;2022-11-20T08:52:19;2.97;;;2.37;;
40955;SDS011;26687;48.254;11.454;2022-11-20T08:55:20;1.80;;;1.70;;
40955;SDS011;26687;48.254;11.454;2022-11-20T08:58:20;1.88;;;1.67;;
40955;SDS011;26687;48.254;11.454;2022-11-20T09:01:20;1.98;;;1.88;;
40955;SDS011;26687;48.254;11.454;2022-11-20T09:04:21;1.63;;;1.52;;
40955;SDS011;26687;48.254;11.454;2022-11-20T09:07:21;2.30;;;1.73;;
40955;SDS011;26687;48.254;11.454;2022-11-20T09:10:21;2.13;;;1.60;;
40955;SDS011;26687;48.254;11.454;2022-11-20T09:13:22;2.30;;;2.10;;
40955;SDS011;26687;48.254;11.454;2022-11-20T09:16:23;3.15;;;1.77;;
40955;SDS011;26687;48.254;11.454;2022-11-20T09:19:23;2.70;;;2.08;;
40955;SDS011;26687;48.254;11.454;2022-11-20T09:22:24;1.80;;;1.70;;
40955;SDS011;26687;48.254;11.454;2022-11-20T09:25:24;1.63;;;1.30;;
40955;SDS011;26687;48.254;11.454;2022-11-20T09:28:25;2.20;;;1.55;;
40955;SDS011;26687;48.254;11.454;2022-11-20T09:31:25;2.42;;;1.80;;
40955;SDS011;26687;48.254;11.454;2022-11-20T09:34:26;1.60;;;1.50;;
40955;SDS011;26687;48.254;11.454;2022-11-20T09:37:26;2.87;;;2.67;;
40955;SDS011;26687;48.254;11.454;2022-11-20T09:40:27;2.38;;;2.17;;
40955;SDS011;26687;48.254;11.454;2022-11-20T09:46:53;1.55;;;1.40;;
40955;SDS011;26687;48.254;11.454;2022-11-20T09:50:01;1.98;;;1.67;;
40955;SDS011;26687;48.254;11.454;2022-11-20T09:56:10;2.30;;;1.88;;
40955;SDS011;26687;48.254;11.454;2022-11-20T09:59:23;1.65;;;1.55;;
40955;SDS011;26687;48.254;11.454;2022-11-20T10:02:30;1.50;;;1.40;;
40955;SDS011;26687;48.254;11.454;2022-11-20T10:08:42;1.48;;;1.30;;
40955;SDS011;26687;48.254;11.454;2022-11-20T10:14:54;1.90;;;1.70;;
40955;SDS011;26687;48.254;11.454;2022-11-20T10:21:11;2.20;;;2.00;;
40955;SDS011;26687;48.254;11.454;2022-11-20T10:30:22;3.33;;;1.65;;
40955;SDS011;26687;48.254;11.454;2022-11-20T10:33:25;1.23;;;1.15;;
40955;SDS011;26687;48.254;11.454;2022-11-20T10:36:27;1.60;;;1.50;;
40955;SDS011;26687;48.254;11.454;2022-11-20T10:39:33;2.13;;;1.48;;
40955;SDS011;26687;48.254;11.454;2022-11-20T10:42:46;2.38;;;1.83;;
40955;SDS011;26687;48.254;11.454;2022-11-20T10:48:47;2.27;;;1.30;;
40955;SDS011;26687;48.254;11.454;2022-11-20T10:58:26;3.25;;;1.20;;
40955;SDS011;26687;48.254;11.454;2022-11-20T11:01:29;2.85;;;1.40;;
40955;SDS011;26687;48.254;11.454;2022-11-20T11:07:35;1.17;;;1.08;;
40955;SDS011;26687;48.254;11.454;2022-11-20T11:10:47;1.25;;;1.05;;
40955;SDS011;26687;48.254;11.454;2022-11-20T11:13:49;1.20;;;1.00;;
40955;SDS011;26687;48.254;11.454;2022-11-20T11:19:56;1.00;;;0.98;;
40955;SDS011;26687;48.254;11.454;2022-11-20T11:22:57;1.15;;;0.80;;
40955;SDS011;26687;48.254;11.454;2022-11-20T11:25:58;1.90;;;1.10;;
40955;SDS011;26687;48.254;11.454;2022-11-20T11:29:00;1.92;;;1.10;;
40955;SDS011;26687;48.254;11.454;2022-11-20T11:32:07;0.98;;;0.80;;
40955;SDS011;26687;48.254;11.454;2022-11-20T11:38:38;1.10;;;1.00;;
40955;SDS011;26687;48.254;11.454;2022-11-20T11:41:39;1.13;;;1.00;;
40955;SDS011;26687;48.254;11.454;2022-11-20T11:44:43;1.20;;;0.90;;
40955;SDS011;26687;48.254;11.454;2022-11-20T11:48:03;2.07;;;0.90;;
40955;SDS011;26687;48.254;11.454;2022-11-20T11:51:07;1.05;;;0.82;;
40955;SDS011;26687;48.254;11.454;2022-11-20T11:54:12;1.58;;;0.80;;
40955;SDS011;26687;48.254;11.454;2022-11-20T11:57:16;0.98;;;0.70;;
40955;SDS011;26687;48.254;11.454;2022-11-20T12:00:21;1.42;;;0.82;;
40955;SDS011;26687;48.254;11.454;2022-11-20T12:03:24;0.98;;;0.70;;
40955;SDS011;26687;48.254;11.454;2022-11-20T12:06:25;2.17;;;0.98;;
40955;SDS011;26687;48.254;11.454;2022-11-20T12:09:28;0.88;;;0.70;;
40955;SDS011;26687;48.254;11.454;2022-11-20T12:12:40;0.70;;;0.70;;
40955;SDS011;26687;48.254;11.454;2022-11-20T12:15:44;1.00;;;0.90;;
40955;SDS011;26687;48.254;11.454;2022-11-20T12:18:44;0.93;;;0.80;;
40955;SDS011;26687;48.254;11.454;2022-11-20T12:21:53;1.00;;;0.90;;
40955;SDS011;26687;48.254;11.454;2022-11-20T12:25:03;1.25;;;0.93;;
40955;SDS011;26687;48.254;11.454;2022-11-20T12:34:18;1.05;;;0.98;;
40955;SDS011;26687;48.254;11.454;2022-11-20T12:43:43;1.10;;;1.00;;
40955;SDS011;26687;48.254;11.454;2022-11-20T12:53:10;1.13;;;0.90;;
40955;SDS011;26687;48.254;11.454;2022-11-20T13:09:00;1.58;;;0.80;;
40955;SDS011;26687;48.254;11.454;2022-11-20T13:18:22;1.35;;;1.02;;
40955;SDS011;26687;48.254;11.454;2022-11-20T13:21:35;2.00;;;0.98;;
40955;SDS011;26687;48.254;11.454;2022-11-20T13:24:35;1.20;;;1.00;;
40955;SDS011;26687;48.254;11.454;2022-11-20T13:27:35;1.08;;;0.93;;
40955;SDS011;26687;48.254;11.454;2022-11-20T13:30:36;0.87;;;0.87;;
40955;SDS011;26687;48.254;11.454;2022-11-20T13:33:37;2.03;;;1.23;;
40955;SDS011;26687;48.254;11.454;2022-11-20T13:36:47;1.20;;;1.10;;
40955;SDS011;26687;48.254;11.454;2022-11-20T13:39:47;1.27;;;1.17;;
40955;SDS011;26687;48.254;11.454;2022-11-20T13:46:11;1.73;;;1.30;;
40955;SDS011;26687;48.254;11.454;2022-11-20T13:49:16;1.40;;;1.30;;
40955;SDS011;26687;48.254;11.454;2022-11-20T14:01:59;3.33;;;1.77;;
40955;SDS011;26687;48.254;11.454;2022-11-20T14:05:00;1.65;;;1.40;;
40955;SDS011;26687;48.254;11.454;2022-11-20T14:08:02;2.15;;;1.40;;
40955;SDS011;26687;48.254;11.454;2022-11-20T14:11:46;1.27;;;1.17;;
40955;SDS011;26687;48.254;11.454;2022-11-20T14:14:30;2.00;;;1.30;;
40955;SDS011;26687;48.254;11.454;2022-11-20T14:17:33;1.17;;;1.08;;
40955;SDS011;26687;48.254;11.454;2022-11-20T14:20:33;1.30;;;1.17;;
40955;SDS011;26687;48.254;11.454;2022-11-20T14:23:34;1.80;;;1.70;;
40955;SDS011;26687;48.254;11.454;2022-11-20T14:26:34;3.25;;;2.95;;
40955;SDS011;26687;48.254;11.454;2022-11-20T14:29:36;2.72;;;2.42;;
40955;SDS011;26687;48.254;11.454;2022-11-20T14:32:37;1.90;;;1.42;;
40955;SDS011;26687;48.254;11.454;2022-11-20T14:35:40;1.60;;;1.40;;
40955;SDS011;26687;48.254;11.454;2022-11-20T14:38:43;1.20;;;1.10;;
40955;SDS011;26687;48.254;11.454;2022-11-20T14:41:49;2.60;;;2.40;;
40955;SDS011;26687;48.254;11.454;2022-11-20T14:44:50;1.80;;;1.70;;
40955;SDS011;26687;48.254;11.454;2022-11-20T14:47:55;2.80;;;2.42;;
40955;SDS011;26687;48.254;11.454;2022-11-20T14:50:55;1.65;;;1.33;;
40955;SDS011;26687;48.254;11.454;2022-11-20T14:53:56;1.85;;;1.38;;
40955;SDS011;26687;48.254;11.454;2022-11-20T14:57:00;1.70;;;1.40;;
40955;SDS011;26687;48.254;11.454;2022-11-20T15:03:14;2.35;;;1.80;;
40955;SDS011;26687;48.254;11.454;2022-11-20T15:06:14;1.40;;;1.00;;
40955;SDS011;26687;48.254;11.454;2022-11-20T15:09:25;1.52;;;1.00;;
40955;SDS011;26687;48.254;11.454;2022-11-20T15:12:25;1.73;;;0.70;;
40955;SDS011;26687;48.254;11.454;2022-11-20T15:15:29;0.70;;;0.70;;
40955;SDS011;26687;48.254;11.454;2022-11-20T15:18:31;0.98;;;0.60;;
40955;SDS011;26687;48.254;11.454;2022-11-20T15:21:32;1.40;;;1.08;;
40955;SDS011;26687;48.254;11.454;2022-11-20T15:24:32;1.00;;;0.88;;
40955;SDS011;26687;48.254;11.454;2022-11-20T15:27:32;1.13;;;1.00;;
40955;SDS011;26687;48.254;11.454;2022-11-20T15:30:32;1.08;;;0.60;;
40955;SDS011;26687;48.254;11.454;2022-11-20T15:33:32;0.93;;;0.82;;
40955;SDS011;26687;48.254;11.454;2022-11-20T15:36:33;0.67;;;0.67;;
40955;SDS011;26687;48.254;11.454;2022-11-20T15:39:33;1.77;;;1.05;;
40955;SDS011;26687;48.254;11.454;2022-11-20T15:42:33;1.17;;;1.00;;
40955;SDS011;26687;48.254;11.454;2022-11-20T15:45:36;1.00;;;0.82;;
40955;SDS011;26687;48.254;11.454;2022-11-20T15:48:39;1.67;;;1.10;;
40955;SDS011;26687;48.254;11.454;2022-11-20T15:51:41;1.05;;;0.90;;
40955;SDS011;26687;48.254;11.454;2022-11-20T15:54:42;0.73;;;0.52;;
40955;SDS011;26687;48.254;11.454;2022-11-20T15:57:43;1.10;;;0.60;;
40955;SDS011;26687;48.254;11.454;2022-11-20T16:00:43;0.83;;;0.60;;
40955;SDS011;26687;48.254;11.454;2022-11-20T16:03:44;3.28;;;1.58;;
40955;SDS011;26687;48.254;11.454;2022-11-20T16:06:44;1.50;;;1.37;;
40955;SDS011;26687;48.254;11.454;2022-11-20T16:09:44;1.23;;;1.00;;
40955;SDS011;26687;48.254;11.454;2022-11-20T16:12:44;1.67;;;1.02;;
40955;SDS011;26687;48.254;11.454;2022-11-20T16:16:04;0.93;;;0.75;;
40955;SDS011;26687;48.254;11.454;2022-11-20T16:19:05;1.95;;;1.23;;
40955;SDS011;26687;48.254;11.454;2022-11-20T16:22:05;0.90;;;0.77;;
40955;SDS011;26687;48.254;11.454;2022-11-20T16:25:05;1.67;;;1.45;;
40955;SDS011;26687;48.254;11.454;2022-11-20T16:28:06;2.28;;;1.60;;
40955;SDS011;26687;48.254;11.454;2022-11-20T16:31:07;1.80;;;1.60;;
40955;SDS011;26687;48.254;11.454;2022-11-20T16:34:08;3.63;;;3.25;;
40955;SDS011;26687;48.254;11.454;2022-11-20T16:37:08;2.50;;;2.30;;
40955;SDS011;26687;48.254;11.454;2022-11-20T16:40:08;2.15;;;1.83;;
40955;SDS011;26687;48.254;11.454;2022-11-20T16:43:09;1.92;;;1.80;;
40955;SDS011;26687;48.254;11.454;2022-11-20T16:46:09;1.98;;;1.60;;
40955;SDS011;26687;48.254;11.454;2022-11-20T16:49:11;2.17;;;1.83;;
40955;SDS011;26687;48.254;11.454;2022-11-20T16:52:12;4.05;;;3.22;;
40955;SDS011;26687;48.254;11.454;2022-11-20T16:55:12;2.35;;;2.15;;
40955;SDS011;26687;48.254;11.454;2022-11-20T16:58:12;2.40;;;2.20;;
40955;SDS011;26687;48.254;11.454;2022-11-20T17:01:15;3.10;;;2.80;;
40955;SDS011;26687;48.254;11.454;2022-11-20T17:04:15;2.17;;;1.85;;
40955;SDS011;26687;48.254;11.454;2022-11-20T17:07:16;1.63;;;1.52;;
40955;SDS011;26687;48.254;11.454;2022-11-20T17:10:16;3.30;;;2.83;;
40955;SDS011;26687;48.254;11.454;2022-11-20T17:13:16;4.13;;;2.83;;
40955;SDS011;26687;48.254;11.454;2022-11-20T17:16:17;2.90;;;2.35;;
40955;SDS011;26687;48.254;11.454;2022-11-20T17:19:18;2.20;;;2.00;;
40955;SDS011;26687;48.254;11.454;2022-11-20T17:22:18;2.28;;;2.08;;
40955;SDS011;26687;48.254;11.454;2022-11-20T17:25:18;3.30;;;2.20;;
40955;SDS011;26687;48.254;11.454;2022-11-20T17:28:18;3.30;;;2.10;;
40955;SDS011;26687;48.254;11.454;2022-11-20T17:31:18;2.85;;;2.65;;
40955;SDS011;26687;48.254;11.454;2022-11-20T17:34:19;3.30;;;2.97;;
40955;SDS011;26687;48.254;11.454;2022-11-20T17:37:19;3.85;;;3.55;;
40955;SDS011;26687;48.254;11.454;2022-11-20T17:40:19;3.95;;;3.60;;
40955;SDS011;26687;48.254;11.454;2022-11-20T17:43:19;4.03;;;3.63;;
40955;SDS011;26687;48.254;11.454;2022-11-20T17:46:20;4.83;;;4.33;;
40955;SDS011;26687;48.254;11.454;2022-11-20T17:49:20;5.38;;;4.88;;
40955;SDS011;26687;48.254;11.454;2022-11-20T17:52:21;4.73;;;4.33;;
40955;SDS011;26687;48.254;11.454;2022-11-20T17:55:21;5.20;;;4.10;;
40955;SDS011;26687;48.254;11.454;2022-11-20T17:58:22;3.00;;;2.80;;
40955;SDS011;26687;48.254;11.454;2022-11-20T18:01:22;3.63;;;3.33;;
40955;SDS011;26687;48.254;11.454;2022-11-20T18:04:22;4.25;;;3.85;;
40955;SDS011;26687;48.254;11.454;2022-11-20T18:07:23;4.05;;;3.65;;
40955;SDS011;26687;48.254;11.454;2022-11-20T18:10:23;3.70;;;3.40;;
40955;SDS011;26687;48.254;11.454;2022-11-20T18:13:24;3.63;;;3.33;;
40955;SDS011;26687;48.254;11.454;2022-11-20T18:16:45;3.30;;;3.10;;
40955;SDS011;26687;48.254;11.454;2022-11-20T18:19:46;3.83;;;3.38;;
40955;SDS011;26687;48.254;11.454;2022-11-20T18:22:46;4.60;;;4.20;;
40955;SDS011;26687;48.254;11.454;2022-11-20T18:25:47;4.87;;;4.37;;
40955;SDS011;26687;48.254;11.454;2022-11-20T18:28:47;5.47;;;4.80;;
40955;SDS011;26687;48.254;11.454;2022-11-20T18:31:47;5.77;;;5.17;;
40955;SDS011;26687;48.254;11.454;2022-11-20T18:34:47;7.30;;;6.53;;
40955;SDS011;26687;48.254;11.454;2022-11-20T18:37:48;7.63;;;6.88;;
40955;SDS011;26687;48.254;11.454;2022-11-20T18:40:48;7.53;;;6.83;;
40955;SDS011;26687;48.254;11.454;2022-11-20T18:43:48;6.47;;;5.97;;
40955;SDS011;26687;48.254;11.454;2022-11-20T18:47:08;7.15;;;6.45;;
40955;SDS011;26687;48.254;11.454;2022-11-20T18:50:09;6.25;;;5.75;;
40955;SDS011;26687;48.254;11.454;2022-11-20T18:53:09;6.03;;;5.40;;
40955;SDS011;26687;48.254;11.454;2022-11-20T18:56:09;5.63;;;5.10;;
40955;SDS011;26687;48.254;11.454;2022-11-20T18:59:09;7.07;;;6.43;;
40955;SDS011;26687;48.254;11.454;2022-11-20T19:02:14;7.20;;;6.20;;
40955;SDS011;26687;48.254;11.454;2022-11-20T19:05:14;7.97;;;5.95;;
40955;SDS011;26687;48.254;11.454;2022-11-20T19:08:14;13.15;;;8.35;;
40955;SDS011;26687;48.254;11.454;2022-11-20T19:11:14;11.10;;;9.00;;
40955;SDS011;26687;48.254;11.454;2022-11-20T19:14:15;11.32;;;9.73;;
40955;SDS011;26687;48.254;11.454;2022-11-20T19:17:15;12.97;;;11.67;;
40955;SDS011;26687;48.254;11.454;2022-11-20T19:20:16;9.57;;;8.30;;
40955;SDS011;26687;48.254;11.454;2022-11-20T19:23:17;20.30;;;10.82;;
40955;SDS011;26687;48.254;11.454;2022-11-20T19:26:21;18.48;;;10.23;;
40955;SDS011;26687;48.254;11.454;2022-11-20T19:29:22;15.43;;;10.50;;
40955;SDS011;26687;48.254;11.454;2022-11-20T19:32:22;16.05;;;10.75;;
40955;SDS011;26687;48.254;11.454;2022-11-20T19:35:23;13.23;;;8.33;;